• Join FlightAware (Why Join?)
  • Login
  • US Flag 
06:28AM EST


 

Airport Tracker/Info


-or-


 

Live Flight TrackerFlight Track Log ✈ EJA922 ✈ 18-Aug-2013 ✈ KSAW - KUGN

Flight Track Log - Related Links

Times and Time Zones

All times are in EDT time to prevent confusion due to time zone crossing. See the EJA922 flight status page for this flight to view local times or setup timezone preferences in your user account.

Time Position Orientation Groundspeed Altitude Reporting Facility
EDT Latitude Longitude Course Direction KTS MPH feet Rate Location/Type
11:24AM 46.3575 -87.3936 253° West 159 183 1,700  Level Minneapolis Center
11:25AM 46.3453 -87.4519 253° West 228 262 8,000 3,770 Climbing Minneapolis Center
11:26AM 46.2692 -87.4700 189° South 284 327 11,000 2,419 Climbing Minneapolis Center
11:28AM 46.1692 -87.4947 190° South 355 409 13,000 2,129 Climbing Minneapolis Center
11:29AM 46.0631 -87.5197 189° South 378 435 15,400 2,177 Climbing Minneapolis Center
11:30AM 45.9547 -87.5469 190° South 387 445 17,500 1,512 Climbing Minneapolis Center
11:31AM 45.8586 -87.5692 189° South 408 470 18,500 1,355 Climbing Minneapolis Center
11:32AM 45.7194 -87.6003 189° South 421 484 20,300 1,488 Climbing Minneapolis Center
11:33AM 45.5972 -87.6314 190° South 439 505 21,600 823 Climbing Minneapolis Center
11:34AM 45.4708 -87.6611 189° South 456 525 22,000 194 Climbing Minneapolis Center
11:35AM 45.3392 -87.6925 190° South 475 547 22,000  Level Minneapolis Center
11:36AM 45.1822 -87.7283 189° South 478 550 22,000  Level Minneapolis Center
11:37AM 45.0533 -87.7589 190° South 474 545 22,000  Level Minneapolis Center
11:38AM 44.9247 -87.7889 189° South 471 542 22,000  Level Minneapolis Center
11:39AM 44.7961 -87.8169 189° South 471 542 22,000  Level Minneapolis Center
11:40AM 44.6669 -87.8456 189° South 471 542 22,000  Level Minneapolis Center
11:41AM 44.5136 -87.8814 189° South 469 540 22,000  Level Minneapolis Center
11:42AM 44.3933 -87.9081 189° South 468 539 22,000  Level Minneapolis Center
11:43AM 44.2644 -87.9372 189° South 469 540 22,000  Level Minneapolis Center
11:44AM 44.1119 -87.9711 189° South 473 544 22,000  Level Minneapolis Center
11:45AM 44.0044 -87.9964 190° South 471 542 22,000 -308 Level Chicago Center
11:46AM 43.8731 -88.0250 189° South 474 545 21,400 -1,210 Descending Chicago Center
11:47AM 43.7433 -88.0544 189° South 472 543 19,500 -1,742 Descending Chicago Center
11:48AM 43.6192 -88.0814 189° South 453 521 17,800 -1,984 Descending Chicago Center
11:49AM 43.4761 -88.1119 189° South 442 509 15,400 -1,597 Descending Chicago Center
11:50AM 43.3569 -88.1147 181° South 427 491 14,500 -1,065 Descending Chicago Center
11:51AM 43.2439 -88.0981 174° South 408 470 13,200 -1,452 Descending Chicago Center
11:52AM 43.1544 -88.0583 162° South 343 395 11,500 -1,548 Descending Chicago Center
11:53AM 43.0736 -88.0147 158° South 315 362 10,000 -1,452 Descending Chicago Center
11:54AM 42.9997 -87.9747 158° South 290 334 8,500 -1,016 Descending Chicago Center
11:55AM 42.9178 -87.9314 159° South 272 313 7,900 -968 Descending Chicago Center
11:56AM 42.8478 -87.8914 157° South 273 314 6,500 -1,403 Descending Chicago Center
11:57AM 42.7844 -87.8419 150° Southeast 264 304 5,000 -1,210 Descending Chicago Center
11:58AM 42.7311 -87.7775 138° Southeast 258 297 4,000 -480 Descending Chicago Center
11:59AM 42.6547 -87.8075 196° South 281 323 4,000 -240 Level Chicago Center
12:00PM 42.5706 -87.8283 190° South 266 306 3,500 -677 Descending Chicago Center
12:02PM 42.5044 -87.8500 194° South 253 291 2,600 -484 Descending Chicago Center
12:03PM 42.4450 -87.8664 191° South 243 280 2,500 97 Descending Chicago Center
12:04PM 42.3847 -87.8817 191° South 232 267 2,800 -431 Climbing Chicago Center
12:06PM 42.4167 -87.8833 358° North 135 155 1,100 -767 Descending Chicago TRACON
12:08PM 42.4167 -87.8667 14° North  Level FlightAware Approximate